Time;durP1;ratioP1;P1;durP2;ratioP2;P2;SDS_P1;SDS_P2;PMS_P1;PMS_P2;Temp;Humidity;BMP_temperature;BMP_pressure;BME280_temperature;BME280_humidity;BME280_pressure;Samples;Min_cycle;Max_cycle;Signal;HPM_P1;HPM_P2
2022/04/16 14:32:18;;;;;;;4.38;1.15;;;22.00;47.10;;;;;;10478915;27;20221;-22
2022/04/16 14:37:19;;;;;;;1.88;1.17;;;22.10;50.60;;;;;;10395908;28;20518;-21
2022/04/16 14:44:34;;;;;;;2.08;1.40;;;22.00;44.70;;;;;;10435466;27;2028232;-86
2022/04/16 14:49:35;;;;;;;1.73;1.42;;;21.40;53.00;;;;;;10459362;28;20044;-85
2022/04/16 14:54:36;;;;;;;4.38;1.95;;;20.80;52.60;;;;;;10464309;28;20123;-86
2022/04/16 14:59:37;;;;;;;3.35;1.85;;;19.50;50.50;;;;;;10453338;28;20502;-85
2022/04/16 15:04:37;;;;;;;2.03;1.70;;;18.50;50.80;;;;;;10469773;28;20501;-85
2022/04/16 15:09:38;;;;;;;2.55;1.88;;;17.80;51.20;;;;;;10441788;28;20378;-84
2022/04/16 15:14:39;;;;;;;3.03;1.60;;;17.60;52.30;;;;;;10474188;28;20074;-86
2022/04/16 15:19:39;;;;;;;2.75;1.67;;;17.30;51.50;;;;;;10477028;28;20036;-84
2022/04/16 15:24:40;;;;;;;2.28;1.40;;;17.00;52.90;;;;;;10466843;28;20037;-84
2022/04/16 15:29:43;;;;;;;1.50;1.13;;;16.80;52.90;;;;;;10467959;28;20483;-87
2022/04/16 15:34:44;;;;;;;2.50;1.20;;;16.80;53.70;;;;;;10459049;28;20147;-81
2022/04/16 15:39:45;;;;;;;2.00;1.30;;;16.80;54.20;;;;;;10471250;28;20493;-85
2022/04/16 15:44:45;;;;;;;2.67;1.48;;;16.70;53.40;;;;;;10473445;28;20080;-85
2022/04/16 15:49:46;;;;;;;2.80;1.15;;;16.40;54.10;;;;;;10476256;28;20040;-85
2022/04/16 15:54:47;;;;;;;1.60;1.05;;;16.20;54.00;;;;;;10453398;28;20032;-85
2022/04/16 15:59:48;;;;;;;3.10;1.40;;;16.00;53.70;;;;;;10426101;28;20284;-86
2022/04/16 16:04:55;;;;;;;2.63;1.38;;;15.80;53.90;;;;;;10446352;28;20487;-85
2022/04/16 16:09:58;;;;;;;1.70;1.40;;;15.60;53.50;;;;;;10462165;28;20021;-84
2022/04/16 16:15:01;;;;;;;4.75;1.85;;;15.40;54.00;;;;;;10459169;28;20113;-83
2022/04/16 16:20:05;;;;;;;6.78;1.42;;;15.40;54.10;;;;;;10438707;28;20125;-83
2022/04/16 16:25:06;;;;;;;3.08;1.50;;;15.30;54.60;;;;;;10434336;28;20446;-84
2022/04/16 16:30:07;;;;;;;3.38;1.52;;;15.20;54.60;;;;;;10410198;28;20029;-84
2022/04/16 16:35:09;;;;;;;2.85;1.42;;;15.10;55.20;;;;;;10459478;28;20415;-83
2022/04/16 16:40:10;;;;;;;3.47;1.33;;;15.00;55.60;;;;;;10460063;28;20369;-84
2022/04/16 16:51:44;;;;;;;2.95;1.35;;;14.90;56.30;;;;;;10355602;28;20038;-83
2022/04/16 16:57:07;;;;;;;2.00;1.60;;;14.80;56.00;;;;;;10359914;28;20041;-85
2022/04/16 17:07:28;;;;;;;2.38;1.40;;;14.70;56.90;;;;;;10438820;28;20036;-83
2022/04/16 17:12:29;;;;;;;2.50;1.70;;;14.60;56.90;;;;;;10412550;28;20028;-81
2022/04/16 17:22:49;;;;;;;4.32;1.90;;;14.40;57.60;;;;;;10415708;28;20040;-82
2022/04/16 17:27:50;;;;;;;2.78;1.65;;;14.30;57.80;;;;;;10414484;28;20064;-84
2022/04/16 17:32:51;;;;;;;3.28;1.77;;;14.30;58.10;;;;;;10415824;28;20692;-85
2022/04/16 17:37:58;;;;;;;3.10;1.75;;;14.30;58.30;;;;;;10436955;28;20037;-84
2022/04/16 17:43:02;;;;;;;4.15;2.05;;;14.20;58.40;;;;;;10445122;28;20080;-89
2022/04/16 17:48:09;;;;;;;4.38;2.45;;;14.00;58.30;;;;;;10433045;28;20044;-88
2022/04/16 17:53:14;;;;;;;5.20;2.30;;;13.90;58.40;;;;;;10448172;28;20113;-88
2022/04/16 17:58:18;;;;;;;3.45;2.13;;;13.90;58.70;;;;;;10428329;28;20123;-91
2022/04/16 18:03:21;;;;;;;3.85;1.92;;;13.70;58.90;;;;;;10419981;28;20048;-83
2022/04/16 18:08:25;;;;;;;3.78;2.20;;;13.60;59.00;;;;;;10431968;28;20518;-86
2022/04/16 18:13:42;;;;;;;2.42;1.73;;;13.40;59.30;;;;;;10451099;28;20025;-86
2022/04/16 18:18:48;;;;;;;2.88;1.70;;;13.30;59.10;;;;;;10448758;28;20112;-86
2022/04/16 18:24:28;;;;;;;3.85;1.70;;;13.20;59.90;;;;;;10440683;28;20084;-87
2022/04/16 18:29:33;;;;;;;3.25;1.98;;;13.00;59.70;;;;;;10438331;28;20616;-86
2022/04/16 18:34:40;;;;;;;2.35;1.48;;;12.80;60.50;;;;;;10418349;28;20490;-86
2022/04/16 18:39:42;;;;;;;6.22;2.30;;;12.70;60.80;;;;;;10461229;28;20024;-86
2022/04/16 18:44:43;;;;;;;4.90;3.58;;;12.50;60.90;;;;;;10418275;28;20041;-86
2022/04/16 18:49:44;;;;;;;6.55;4.05;;;12.40;61.20;;;;;;10427635;28;20021;-86
2022/04/16 18:54:46;;;;;;;13.40;7.38;;;12.20;61.40;;;;;;10434614;28;20036;-87
2022/04/16 19:31:30;;;;;;;4.65;3.30;;;11.20;62.80;;;;;;10442672;28;20583;-85
2022/04/16 19:36:31;;;;;;;7.65;4.38;;;11.00;63.40;;;;;;10438753;28;20112;-85
2022/04/16 19:47:59;;;;;;;6.15;4.30;;;10.70;63.20;;;;;;10384485;28;20036;-86
2022/04/16 20:00:12;;;;;;;;;;;;;;;;;;;;;
2022/04/16 20:18:10;;;;;;;5.03;3.38;;;10.10;64.30;;;;;;10359235;28;20030;-86
2022/04/16 20:23:12;;;;;;;3.65;2.80;;;9.90;64.80;;;;;;10353374;28;20041;-86
2022/04/16 20:28:14;;;;;;;5.00;3.50;;;10.10;65.60;;;;;;10404407;28;20384;-87
2022/04/16 21:05:35;;;;;;;3.80;3.00;;;9.80;66.00;;;;;;10388294;28;20096;-87
2022/04/16 21:10:36;;;;;;;4.30;3.22;;;9.00;66.00;;;;;;10376108;28;20034;-87
2022/04/16 21:15:37;;;;;;;5.65;3.30;;;9.00;66.30;;;;;;10391217;28;20519;-86
2022/04/16 21:20:38;;;;;;;10.25;4.20;;;8.90;66.40;;;;;;10399215;28;20049;-84
2022/04/16 21:25:38;;;;;;;10.35;4.32;;;8.80;66.50;;;;;;10384987;28;20026;-86
2022/04/16 21:56:17;;;;;;;6.97;4.20;;;8.30;67.60;;;;;;10325804;28;20038;-85
2022/04/16 22:01:44;;;;;;;7.88;4.55;;;8.20;67.60;;;;;;10308936;28;20511;-84
2022/04/16 22:06:45;;;;;;;6.90;4.20;;;8.10;67.80;;;;;;10411917;28;20071;-85
2022/04/16 22:11:47;;;;;;;7.78;3.67;;;8.00;67.90;;;;;;10421709;28;20033;-85
2022/04/16 22:16:48;;;;;;;12.27;4.88;;;8.00;68.30;;;;;;10421613;28;20036;-83
2022/04/16 22:21:52;;;;;;;7.05;4.30;;;8.90;68.90;;;;;;10409254;28;20044;-85
2022/04/16 22:26:53;;;;;;;6.53;3.75;;;7.80;68.50;;;;;;10387985;28;20057;-85
2022/04/16 22:31:54;;;;;;;6.60;4.20;;;7.80;68.60;;;;;;10407099;28;20032;-85
2022/04/16 22:42:14;;;;;;;5.28;3.70;;;7.60;68.90;;;;;;10409670;28;20084;-85
2022/04/16 22:47:18;;;;;;;8.40;3.88;;;8.50;69.50;;;;;;10410000;28;20289;-88
2022/04/16 22:52:22;;;;;;;7.78;4.00;;;7.50;69.20;;;;;;10358112;28;20106;-85
2022/04/16 23:10:24;;;;;;;;;;;;;;;;;;;;;
2022/04/16 23:48:16;;;;;;;5.93;3.80;;;6.90;70.30;;;;;;10185098;29;20032;-85
